createdAt,value
2023-01-18T00:00:29.870Z,94.65
2023-01-18T00:01:29.824Z,94.76
2023-01-18T00:02:29.815Z,94.76
2023-01-18T00:03:29.837Z,94.65
2023-01-18T00:04:29.805Z,94.45
2023-01-18T00:05:29.788Z,94.45
2023-01-18T00:06:29.793Z,94.55
2023-01-18T00:07:29.778Z,94.55
2023-01-18T00:08:29.754Z,94.24
2023-01-18T00:09:29.763Z,94.34
2023-01-18T00:10:29.756Z,94.34
2023-01-18T00:11:29.754Z,94.45
2023-01-18T00:12:29.725Z,94.45
2023-01-18T00:13:29.712Z,94.45
2023-01-18T00:14:29.709Z,94.45
2023-01-18T00:15:29.695Z,94.34
2023-01-18T00:16:29.705Z,94.45
2023-01-18T00:17:29.654Z,94.45
2023-01-18T00:18:29.666Z,94.34
2023-01-18T00:19:29.635Z,94.34
2023-01-18T00:20:29.667Z,94.34
2023-01-18T00:21:29.644Z,94.34
2023-01-18T00:22:29.605Z,94.45
2023-01-18T00:23:29.605Z,94.45
2023-01-18T00:24:29.585Z,94.55
2023-01-18T00:25:29.597Z,94.45
2023-01-18T00:26:29.566Z,94.24
2023-01-18T00:27:29.582Z,94.24
2023-01-18T00:28:29.569Z,94.34
2023-01-18T00:29:29.545Z,94.24
2023-01-18T00:30:29.539Z,94.34
2023-01-18T00:31:29.546Z,94.45
2023-01-18T00:32:29.501Z,94.55
2023-01-18T00:33:29.514Z,94.49
2023-01-18T00:34:29.476Z,94.49
2023-01-18T00:35:29.471Z,94.80
2023-01-18T00:36:29.463Z,94.90
2023-01-18T00:37:29.445Z,95.01
2023-01-18T00:38:29.454Z,95.01
2023-01-18T00:39:29.447Z,95.11
2023-01-18T00:40:29.418Z,95.01
2023-01-18T00:41:29.418Z,95.01
2023-01-18T00:42:29.396Z,95.01
2023-01-18T00:43:29.387Z,95.15
2023-01-18T00:44:29.415Z,95.26
2023-01-18T00:45:29.420Z,95.36
2023-01-18T00:46:29.347Z,95.32
2023-01-18T00:47:29.354Z,95.32
2023-01-18T00:48:29.338Z,95.32
2023-01-18T00:49:29.339Z,95.32
2023-01-18T00:50:29.335Z,95.32
2023-01-18T00:51:29.321Z,95.32
2023-01-18T00:52:29.279Z,95.32
2023-01-18T00:53:29.278Z,95.32
2023-01-18T00:54:29.275Z,95.07
2023-01-18T00:55:29.265Z,94.96
2023-01-18T00:56:29.248Z,94.96
2023-01-18T00:57:29.230Z,94.86
2023-01-18T00:58:29.261Z,94.55
2023-01-18T00:59:29.226Z,94.45
2023-01-18T01:00:29.197Z,94.49
2023-01-18T01:01:29.434Z,94.49
2023-01-18T01:02:29.242Z,94.59
2023-01-18T01:03:29.168Z,94.49
2023-01-18T01:04:29.187Z,94.59
2023-01-18T01:05:29.163Z,94.70
2023-01-18T01:06:29.149Z,94.70
2023-01-18T01:07:29.128Z,94.49
2023-01-18T01:08:29.145Z,94.38
2023-01-18T01:09:29.141Z,94.59
2023-01-18T01:10:29.088Z,94.70
2023-01-18T01:11:29.116Z,94.84
2023-01-18T01:12:29.073Z,94.84
2023-01-18T01:13:29.071Z,94.84
2023-01-18T01:14:29.058Z,94.95
2023-01-18T01:15:29.036Z,95.05
2023-01-18T01:16:29.083Z,95.05
2023-01-18T01:17:29.028Z,95.15
2023-01-18T01:18:29.023Z,95.26
2023-01-18T01:19:29.020Z,95.15
2023-01-18T01:20:29.021Z,95.05
2023-01-18T01:21:28.988Z,94.74
2023-01-18T01:22:28.980Z,94.64
2023-01-18T01:23:28.979Z,94.74
2023-01-18T01:24:28.951Z,94.74
2023-01-18T01:25:28.979Z,94.74
2023-01-18T01:26:28.940Z,94.74
2023-01-18T01:27:28.960Z,94.95
2023-01-18T01:28:28.927Z,95.05
2023-01-18T01:29:28.912Z,95.05
2023-01-18T01:30:28.920Z,95.15
2023-01-18T01:31:28.880Z,95.26
2023-01-18T01:32:28.879Z,95.36
2023-01-18T01:33:28.883Z,95.47
2023-01-18T01:34:28.859Z,95.47
2023-01-18T01:35:28.839Z,95.47
2023-01-18T01:36:28.840Z,95.57
2023-01-18T01:37:28.819Z,95.67
2023-01-18T01:38:28.811Z,95.57
2023-01-18T01:39:29.743Z,95.36
2023-01-18T01:40:28.779Z,95.36
2023-01-18T01:41:28.803Z,95.36
2023-01-18T01:42:28.764Z,95.47
2023-01-18T01:43:28.760Z,95.57
2023-01-18T01:44:28.740Z,95.57
2023-01-18T01:45:28.750Z,95.67
2023-01-18T01:46:28.746Z,95.67
2023-01-18T01:47:28.740Z,95.57
2023-01-18T01:48:28.731Z,95.67
2023-01-18T01:49:28.691Z,95.89
2023-01-18T01:50:28.691Z,95.99
2023-01-18T01:51:28.693Z,95.99
2023-01-18T01:52:28.681Z,95.89
2023-01-18T01:53:28.669Z,96.03
2023-01-18T01:54:28.637Z,96.14
2023-01-18T01:55:28.630Z,96.14
2023-01-18T01:56:28.630Z,96.14
2023-01-18T01:57:28.627Z,96.14
2023-01-18T01:58:28.595Z,96.24
2023-01-18T01:59:28.601Z,96.24
2023-01-18T02:00:28.601Z,96.24
2023-01-18T02:01:28.693Z,96.24
2023-01-18T02:02:28.574Z,96.24
2023-01-18T02:03:28.552Z,96.34
2023-01-18T02:04:28.569Z,96.24
2023-01-18T02:05:28.530Z,96.45
2023-01-18T02:06:28.531Z,96.55
2023-01-18T02:07:28.523Z,96.45
2023-01-18T02:08:28.496Z,96.55
2023-01-18T02:09:28.504Z,96.55
2023-01-18T02:10:28.515Z,96.55
2023-01-18T02:11:28.482Z,96.55
2023-01-18T02:12:28.447Z,96.76
2023-01-18T02:13:28.463Z,96.86
2023-01-18T02:14:28.453Z,96.97
2023-01-18T02:15:28.422Z,96.97
2023-01-18T02:16:28.462Z,96.86
2023-01-18T02:17:28.405Z,96.86
2023-01-18T02:18:28.403Z,96.76
2023-01-18T02:19:28.408Z,96.76
2023-01-18T02:20:28.365Z,96.66
2023-01-18T02:21:28.354Z,96.66
2023-01-18T02:22:29.292Z,96.55
2023-01-18T02:23:28.365Z,96.55
2023-01-18T02:24:28.346Z,96.76
2023-01-18T02:25:28.344Z,96.76
2023-01-18T02:26:28.314Z,96.66
2023-01-18T02:27:28.302Z,96.45
2023-01-18T02:28:28.298Z,96.55
2023-01-18T02:29:28.292Z,96.55
2023-01-18T02:30:28.293Z,96.66
2023-01-18T02:31:28.267Z,96.76
2023-01-18T02:32:28.253Z,96.76
2023-01-18T02:33:28.242Z,96.76
2023-01-18T02:34:28.255Z,96.66
2023-01-18T02:35:28.254Z,96.66
2023-01-18T02:36:28.200Z,96.55
2023-01-18T02:37:28.202Z,96.45
2023-01-18T02:38:28.199Z,96.45
2023-01-18T02:39:28.168Z,96.34
2023-01-18T02:40:28.183Z,96.30
2023-01-18T02:41:28.193Z,96.14
2023-01-18T02:42:28.146Z,96.14
2023-01-18T02:43:28.123Z,96.14
2023-01-18T02:44:28.141Z,96.24
2023-01-18T02:45:28.113Z,96.34
2023-01-18T02:46:28.155Z,96.45
2023-01-18T02:47:28.198Z,96.34
2023-01-18T02:48:28.083Z,96.45
2023-01-18T02:49:28.083Z,96.55
2023-01-18T02:50:28.058Z,96.55
2023-01-18T02:51:28.069Z,96.66
2023-01-18T02:52:28.040Z,96.76
2023-01-18T02:53:28.012Z,96.76
2023-01-18T02:54:28.024Z,96.76
2023-01-18T02:55:27.992Z,96.91
2023-01-18T02:56:28.001Z,97.01
2023-01-18T02:57:28.044Z,96.97
2023-01-18T02:58:27.953Z,97.07
2023-01-18T02:59:27.961Z,97.07
2023-01-18T03:00:27.946Z,96.97
2023-01-18T03:01:27.994Z,96.86
2023-01-18T03:02:27.943Z,97.01
2023-01-18T03:03:27.915Z,97.07
2023-01-18T03:04:27.919Z,97.07
2023-01-18T03:05:27.895Z,97.07
2023-01-18T03:06:27.886Z,97.07
2023-01-18T03:07:27.871Z,96.97
2023-01-18T03:08:27.873Z,96.86
2023-01-18T03:09:27.875Z,96.97
2023-01-18T03:10:27.831Z,96.97
2023-01-18T03:11:27.831Z,96.97
2023-01-18T03:12:27.823Z,96.97
2023-01-18T03:13:27.812Z,96.86
2023-01-18T03:14:27.812Z,96.76
2023-01-18T03:15:27.828Z,96.66
2023-01-18T03:16:27.779Z,96.55
2023-01-18T03:17:27.772Z,96.66
2023-01-18T03:18:27.760Z,96.49
2023-01-18T03:19:27.743Z,96.59
2023-01-18T03:20:27.743Z,96.80
2023-01-18T03:21:27.732Z,96.91
2023-01-18T03:22:27.715Z,97.12
2023-01-18T03:23:27.703Z,97.12
2023-01-18T03:24:27.712Z,97.12
2023-01-18T03:25:27.707Z,97.12
2023-01-18T03:26:27.694Z,97.22
2023-01-18T03:27:27.673Z,97.01
2023-01-18T03:28:27.652Z,97.12
2023-01-18T03:29:27.653Z,97.22
2023-01-18T03:30:27.633Z,97.33
2023-01-18T03:31:27.633Z,97.43
2023-01-18T03:32:27.608Z,97.53
2023-01-18T03:33:27.616Z,97.33
2023-01-18T03:34:27.581Z,97.12
2023-01-18T03:35:27.587Z,97.01
2023-01-18T03:36:27.594Z,96.91
2023-01-18T03:37:27.573Z,97.01
2023-01-18T03:38:27.543Z,97.01
2023-01-18T03:39:27.541Z,97.01
2023-01-18T03:40:27.530Z,96.80
2023-01-18T03:41:27.569Z,96.80
2023-01-18T03:42:27.503Z,96.80
2023-01-18T03:43:27.494Z,96.80
2023-01-18T03:44:27.492Z,96.91
2023-01-18T03:45:27.493Z,96.91
2023-01-18T03:46:27.514Z,96.80
2023-01-18T03:47:27.482Z,96.80
2023-01-18T03:48:28.395Z,96.80
2023-01-18T03:49:27.444Z,96.80
2023-01-18T03:50:27.432Z,96.70
2023-01-18T03:51:27.416Z,96.80
2023-01-18T03:52:27.403Z,96.91
2023-01-18T03:53:27.405Z,97.01
2023-01-18T03:54:27.404Z,97.12
2023-01-18T03:55:27.374Z,97.01
2023-01-18T03:56:27.371Z,96.80
2023-01-18T03:57:27.383Z,96.80
2023-01-18T03:58:27.343Z,96.91
2023-01-18T03:59:27.339Z,97.01
2023-01-18T04:00:27.330Z,97.01
2023-01-18T04:01:27.468Z,97.12
2023-01-18T04:02:27.351Z,97.01
2023-01-18T04:03:27.288Z,97.01
2023-01-18T04:04:27.284Z,96.91
2023-01-18T04:05:27.269Z,96.80
2023-01-18T04:06:27.277Z,96.80
2023-01-18T04:07:27.259Z,96.91
2023-01-18T04:08:27.234Z,96.91
2023-01-18T04:09:27.237Z,96.91
2023-01-18T04:10:27.217Z,96.91
2023-01-18T04:11:27.219Z,96.91
2023-01-18T04:12:27.196Z,96.91
2023-01-18T04:13:27.194Z,96.91
2023-01-18T04:14:27.199Z,97.01
2023-01-18T04:15:27.169Z,96.91
2023-01-18T04:16:27.156Z,96.91
2023-01-18T04:17:27.145Z,96.80
2023-01-18T04:18:27.156Z,96.80
2023-01-18T04:19:27.147Z,96.80
2023-01-18T04:20:27.116Z,96.80
2023-01-18T04:21:27.120Z,96.91
2023-01-18T04:22:27.100Z,96.91
2023-01-18T04:23:27.085Z,96.91
2023-01-18T04:24:27.106Z,96.80
2023-01-18T04:25:27.083Z,96.91
2023-01-18T04:26:27.061Z,96.80
2023-01-18T04:27:27.059Z,96.91
2023-01-18T04:28:27.039Z,96.91
2023-01-18T04:29:27.016Z,96.91
2023-01-18T04:30:27.013Z,96.91
2023-01-18T04:31:27.093Z,96.91
2023-01-18T04:32:27.039Z,97.12
2023-01-18T04:33:27.041Z,97.33
2023-01-18T04:34:26.967Z,97.33
2023-01-18T04:35:26.968Z,97.33
2023-01-18T04:36:26.967Z,97.43
2023-01-18T04:37:26.954Z,97.33
2023-01-18T04:38:26.926Z,97.33
2023-01-18T04:39:26.925Z,97.12
2023-01-18T04:40:26.911Z,97.01
2023-01-18T04:41:26.910Z,97.01
2023-01-18T04:42:26.891Z,97.12
2023-01-18T04:43:26.887Z,97.06
2023-01-18T04:44:26.876Z,97.06
2023-01-18T04:45:26.869Z,97.06
2023-01-18T04:46:26.895Z,97.12
2023-01-18T04:47:26.847Z,97.12
2023-01-18T04:48:26.826Z,97.12
2023-01-18T04:49:26.835Z,97.06
2023-01-18T04:50:26.819Z,97.01
2023-01-18T04:51:26.808Z,97.12
2023-01-18T04:52:26.918Z,97.12
2023-01-18T04:53:26.820Z,97.12
2023-01-18T04:54:26.764Z,97.01
2023-01-18T04:55:26.772Z,97.01
2023-01-18T04:56:26.739Z,97.01
2023-01-18T04:57:26.727Z,97.12
2023-01-18T04:58:26.730Z,97.01
2023-01-18T04:59:26.729Z,96.91
2023-01-18T05:00:26.708Z,96.80
2023-01-18T05:01:26.822Z,96.70
2023-01-18T05:02:26.705Z,96.70
2023-01-18T05:03:26.687Z,96.70
2023-01-18T05:04:26.660Z,96.70
2023-01-18T05:05:26.656Z,96.70
2023-01-18T05:06:26.637Z,96.70
2023-01-18T05:07:26.628Z,96.59
2023-01-18T05:08:26.643Z,96.28
2023-01-18T05:09:26.609Z,96.28
2023-01-18T05:10:26.600Z,96.18
2023-01-18T05:11:26.595Z,96.33
2023-01-18T05:12:26.799Z,96.33
2023-01-18T05:13:26.572Z,96.39
2023-01-18T05:14:26.549Z,96.12
2023-01-18T05:15:26.549Z,96.12
2023-01-18T05:16:26.575Z,95.81
2023-01-18T05:17:26.540Z,95.50
2023-01-18T05:18:26.541Z,95.39
2023-01-18T05:19:26.508Z,95.39
2023-01-18T05:20:26.514Z,95.29
2023-01-18T05:21:26.484Z,95.08
2023-01-18T05:22:26.486Z,95.18
2023-01-18T05:23:26.462Z,95.18
2023-01-18T05:24:28.864Z,95.18
2023-01-18T05:25:26.449Z,95.18
2023-01-18T05:26:26.461Z,95.50
2023-01-18T05:27:26.428Z,95.60
2023-01-18T05:28:26.417Z,95.60
2023-01-18T05:29:26.409Z,95.60
2023-01-18T05:30:26.389Z,95.70
2023-01-18T05:31:26.469Z,95.70
2023-01-18T05:32:26.378Z,95.50
2023-01-18T05:33:26.360Z,95.60
2023-01-18T05:34:26.350Z,95.60
2023-01-18T05:35:26.359Z,95.81
2023-01-18T05:36:26.435Z,95.81
2023-01-18T05:37:26.334Z,95.70
2023-01-18T05:38:26.314Z,95.70
2023-01-18T05:39:26.320Z,95.81
2023-01-18T05:40:26.309Z,96.01
2023-01-18T05:41:26.287Z,95.91
2023-01-18T05:42:26.270Z,96.01
2023-01-18T05:43:26.273Z,96.33
2023-01-18T05:44:26.270Z,96.43
2023-01-18T05:45:26.306Z,96.75
2023-01-18T05:46:26.242Z,96.85
2023-01-18T05:47:26.236Z,96.75
2023-01-18T05:48:26.213Z,96.53
2023-01-18T05:49:26.212Z,96.33
2023-01-18T05:50:26.182Z,96.01
2023-01-18T05:51:26.189Z,96.01
2023-01-18T05:52:26.172Z,95.60
2023-01-18T05:53:26.159Z,95.60
2023-01-18T05:54:26.142Z,95.81
2023-01-18T05:55:26.140Z,95.91
2023-01-18T05:56:26.149Z,95.91
2023-01-18T05:57:26.118Z,95.81
2023-01-18T05:58:26.122Z,95.91
2023-01-18T05:59:26.107Z,95.91
2023-01-18T06:00:26.101Z,96.33
2023-01-18T06:01:26.099Z,96.43
2023-01-18T06:02:26.063Z,96.43
2023-01-18T06:03:26.061Z,96.53
2023-01-18T06:04:26.063Z,96.64
2023-01-18T06:05:26.048Z,96.85
2023-01-18T06:06:26.022Z,97.06
2023-01-18T06:07:26.012Z,97.16
2023-01-18T06:08:26.001Z,97.27
2023-01-18T06:09:25.987Z,97.27
2023-01-18T06:10:26.000Z,97.27
2023-01-18T06:11:25.992Z,97.37
2023-01-18T06:12:25.951Z,97.37
2023-01-18T06:13:25.953Z,97.37
2023-01-18T06:14:25.941Z,97.58
2023-01-18T06:15:25.933Z,97.78
2023-01-18T06:16:25.978Z,97.68
2023-01-18T06:17:25.939Z,97.78
2023-01-18T06:18:25.891Z,97.99
2023-01-18T06:19:25.883Z,97.99
2023-01-18T06:20:25.880Z,97.99
2023-01-18T06:21:25.863Z,98.10
2023-01-18T06:22:25.852Z,98.31
2023-01-18T06:23:25.862Z,98.41
2023-01-18T06:24:25.833Z,98.52
2023-01-18T06:25:25.823Z,98.52
2023-01-18T06:26:25.813Z,98.52
2023-01-18T06:27:25.830Z,98.46
2023-01-18T06:28:25.792Z,98.41
2023-01-18T06:29:25.782Z,98.46
2023-01-18T06:30:25.772Z,98.46
2023-01-18T06:31:25.764Z,98.56
2023-01-18T06:32:25.763Z,98.56
2023-01-18T06:33:25.745Z,98.56
2023-01-18T06:34:25.733Z,98.66
2023-01-18T06:35:25.725Z,98.87
2023-01-18T06:36:25.722Z,98.77
2023-01-18T06:37:25.705Z,98.77
2023-01-18T06:38:25.689Z,98.87
2023-01-18T06:39:25.681Z,99.08
2023-01-18T06:40:25.671Z,99.18
2023-01-18T06:41:25.670Z,99.29
2023-01-18T06:42:25.652Z,99.18
2023-01-18T06:43:25.647Z,98.87
2023-01-18T06:44:25.623Z,98.87
2023-01-18T06:45:25.637Z,98.66
2023-01-18T06:46:25.603Z,98.56
2023-01-18T06:47:25.592Z,98.66
2023-01-18T06:48:25.588Z,98.77
2023-01-18T06:49:25.601Z,98.77
2023-01-18T06:50:25.564Z,98.66
2023-01-18T06:51:25.561Z,98.56
2023-01-18T06:52:25.573Z,98.46
2023-01-18T06:53:25.534Z,98.56
2023-01-18T06:54:25.529Z,98.46
2023-01-18T06:55:25.515Z,98.46
2023-01-18T06:56:25.525Z,98.35
2023-01-18T06:57:25.493Z,98.46
2023-01-18T06:58:25.494Z,98.35
2023-01-18T06:59:25.494Z,98.46
2023-01-18T07:00:25.464Z,98.66
2023-01-18T07:01:25.587Z,98.66
2023-01-18T07:02:25.456Z,98.35
2023-01-18T07:03:25.434Z,98.14
2023-01-18T07:04:25.486Z,98.04
2023-01-18T07:05:25.405Z,98.25
2023-01-18T07:06:25.411Z,98.14
2023-01-18T07:07:25.397Z,98.25
2023-01-18T07:08:25.386Z,98.35
2023-01-18T07:09:25.376Z,98.25
2023-01-18T07:10:25.367Z,98.25
2023-01-18T07:11:25.354Z,98.14
2023-01-18T07:12:25.344Z,98.14
2023-01-18T07:13:25.333Z,98.25
2023-01-18T07:14:25.337Z,98.35
2023-01-18T07:15:25.308Z,98.35
2023-01-18T07:16:25.332Z,98.35
2023-01-18T07:17:25.292Z,98.35
2023-01-18T07:18:25.298Z,98.35
2023-01-18T07:19:25.265Z,98.25
2023-01-18T07:20:25.276Z,98.04
2023-01-18T07:21:25.249Z,97.83
2023-01-18T07:22:25.247Z,98.04
2023-01-18T07:23:25.227Z,98.29
2023-01-18T07:24:25.226Z,98.50
2023-01-18T07:25:25.206Z,98.56
2023-01-18T07:26:25.200Z,98.56
2023-01-18T07:27:25.185Z,98.50
2023-01-18T07:28:25.176Z,98.60
2023-01-18T07:29:25.185Z,98.60
2023-01-18T07:30:25.175Z,98.56
2023-01-18T07:31:25.225Z,98.71
2023-01-18T07:32:25.145Z,98.71
2023-01-18T07:33:25.123Z,98.60
2023-01-18T07:34:25.131Z,98.46
2023-01-18T07:35:25.111Z,98.50
2023-01-18T07:36:25.097Z,98.50
2023-01-18T07:37:25.136Z,98.60
2023-01-18T07:38:25.078Z,98.39
2023-01-18T07:39:25.080Z,98.39
2023-01-18T07:40:25.087Z,98.50
2023-01-18T07:41:25.040Z,98.50
2023-01-18T07:42:25.042Z,98.39
2023-01-18T07:43:25.015Z,98.50
2023-01-18T07:44:25.024Z,98.60
2023-01-18T07:45:25.010Z,98.71
2023-01-18T07:46:25.060Z,98.71
2023-01-18T07:47:24.987Z,98.56
2023-01-18T07:48:24.973Z,98.35
2023-01-18T07:49:24.957Z,98.19
2023-01-18T07:50:24.971Z,98.29
2023-01-18T07:51:24.967Z,98.71
2023-01-18T07:52:24.976Z,98.82
2023-01-18T07:53:24.915Z,98.60
2023-01-18T07:54:24.913Z,98.39
2023-01-18T07:55:24.904Z,98.08
2023-01-18T07:56:24.887Z,97.77
2023-01-18T07:57:24.867Z,97.77
2023-01-18T07:58:24.874Z,97.88
2023-01-18T07:59:24.857Z,98.08
2023-01-18T08:00:24.858Z,98.08
2023-01-18T08:01:24.978Z,97.77
2023-01-18T08:02:24.842Z,97.81
2023-01-18T08:03:24.808Z,97.81
2023-01-18T08:04:24.808Z,98.02
2023-01-18T08:05:24.793Z,98.23
2023-01-18T08:06:24.907Z,98.13
2023-01-18T08:07:24.787Z,98.23
2023-01-18T08:08:24.772Z,98.13
2023-01-18T08:09:24.761Z,98.02
2023-01-18T08:10:24.745Z,98.13
2023-01-18T08:11:24.733Z,98.13
2023-01-18T08:12:24.717Z,98.13
2023-01-18T08:13:24.709Z,98.23
2023-01-18T08:14:24.718Z,98.23
2023-01-18T08:15:24.686Z,98.02
2023-01-18T08:16:24.696Z,97.92
2023-01-18T08:17:24.668Z,98.23
2023-01-18T08:18:24.674Z,98.23
2023-01-18T08:19:24.647Z,98.23
2023-01-18T08:20:24.658Z,98.02
2023-01-18T08:21:24.635Z,98.13
2023-01-18T08:22:24.625Z,98.13
2023-01-18T08:23:24.616Z,98.13
2023-01-18T08:24:25.007Z,98.23
2023-01-18T08:25:24.598Z,98.13
2023-01-18T08:26:24.579Z,98.19
2023-01-18T08:27:27.103Z,98.19
2023-01-18T08:28:24.561Z,98.08
2023-01-18T08:29:24.547Z,98.08
2023-01-18T08:30:24.568Z,98.19
2023-01-18T08:31:24.614Z,98.19
2023-01-18T08:32:24.523Z,97.88
2023-01-18T08:33:24.508Z,97.77
2023-01-18T08:34:24.513Z,97.67
2023-01-18T08:35:24.479Z,97.77
2023-01-18T08:36:24.475Z,97.88
2023-01-18T08:37:24.458Z,97.98
2023-01-18T08:38:24.458Z,97.88
2023-01-18T08:39:24.452Z,97.77
2023-01-18T08:40:24.441Z,97.67
2023-01-18T08:41:24.421Z,97.67
2023-01-18T08:42:24.424Z,97.46
2023-01-18T08:43:24.410Z,97.56
2023-01-18T08:44:24.390Z,97.35
2023-01-18T08:45:24.380Z,97.35
2023-01-18T08:46:24.463Z,97.46
2023-01-18T08:47:24.398Z,97.56
2023-01-18T08:48:24.348Z,97.56
2023-01-18T08:49:24.358Z,97.46
2023-01-18T08:50:24.339Z,97.35
2023-01-18T08:51:24.319Z,97.25
2023-01-18T08:52:24.330Z,97.25
2023-01-18T08:53:24.295Z,97.10
2023-01-18T08:54:24.311Z,97.00
2023-01-18T08:55:24.283Z,96.62
2023-01-18T08:56:24.268Z,96.62
2023-01-18T08:57:24.276Z,96.62
2023-01-18T08:58:24.253Z,96.83
2023-01-18T08:59:24.294Z,97.04
2023-01-18T09:00:26.096Z,97.04
2023-01-18T09:01:24.350Z,96.94
2023-01-18T09:02:24.271Z,96.73
2023-01-18T09:03:24.190Z,96.94
2023-01-18T09:04:24.181Z,96.94
2023-01-18T09:05:24.169Z,96.83
2023-01-18T09:06:24.169Z,96.83
2023-01-18T09:07:24.161Z,96.73
2023-01-18T09:08:24.153Z,96.62
2023-01-18T09:09:24.130Z,96.73
2023-01-18T09:10:24.120Z,96.73
2023-01-18T09:11:24.155Z,96.94
2023-01-18T09:12:24.121Z,96.83
2023-01-18T09:13:24.122Z,96.73
2023-01-18T09:14:24.099Z,96.52
2023-01-18T09:15:24.074Z,96.52
2023-01-18T09:16:24.085Z,96.62
2023-01-18T09:17:24.048Z,96.42
2023-01-18T09:18:24.060Z,96.52
2023-01-18T09:19:24.030Z,96.37
2023-01-18T09:20:24.023Z,96.16
2023-01-18T09:21:24.034Z,96.16
2023-01-18T09:22:24.000Z,95.95
2023-01-18T09:23:23.991Z,95.75
2023-01-18T09:24:23.990Z,95.85
2023-01-18T09:25:23.961Z,95.85
2023-01-18T09:26:23.971Z,95.95
2023-01-18T09:27:23.940Z,95.75
2023-01-18T09:28:23.959Z,95.64
2023-01-18T09:29:23.919Z,95.75
2023-01-18T09:30:23.921Z,95.85
2023-01-18T09:31:23.961Z,95.85
2023-01-18T09:32:23.900Z,95.75
2023-01-18T09:33:27.395Z,95.75
2023-01-18T09:34:24.879Z,95.43
2023-01-18T09:35:23.880Z,95.43
2023-01-18T09:36:23.915Z,95.54
2023-01-18T09:37:23.841Z,95.64
2023-01-18T09:38:23.852Z,95.64
2023-01-18T09:39:23.818Z,95.64
2023-01-18T09:40:23.822Z,95.75
2023-01-18T09:41:23.799Z,95.54
2023-01-18T09:42:23.799Z,95.75
2023-01-18T09:43:23.788Z,95.95
2023-01-18T09:44:23.773Z,95.43
2023-01-18T09:45:24.061Z,95.54
2023-01-18T09:46:23.768Z,95.75
2023-01-18T09:47:23.768Z,95.64
2023-01-18T09:48:23.750Z,95.64
2023-01-18T09:49:23.711Z,95.54
2023-01-18T09:50:23.842Z,95.54
2023-01-18T09:51:23.691Z,95.43
2023-01-18T09:52:23.691Z,95.54
2023-01-18T09:53:23.692Z,95.85
2023-01-18T09:54:23.671Z,95.54
2023-01-18T09:55:23.670Z,95.12
2023-01-18T09:56:23.641Z,95.02
2023-01-18T09:57:23.634Z,95.12
2023-01-18T09:58:23.642Z,94.70
2023-01-18T09:59:23.619Z,94.49
2023-01-18T10:00:23.605Z,94.39
2023-01-18T10:01:23.772Z,94.39
2023-01-18T10:02:23.741Z,94.49
2023-01-18T10:03:23.599Z,94.60
2023-01-18T10:04:23.563Z,94.45
2023-01-18T10:05:23.562Z,94.35
2023-01-18T10:06:23.566Z,94.45
2023-01-18T10:07:23.522Z,94.45
2023-01-18T10:08:23.542Z,94.35
2023-01-18T10:09:23.514Z,93.93
2023-01-18T10:10:23.643Z,94.04
2023-01-18T10:11:23.493Z,94.24
2023-01-18T10:12:23.483Z,93.93
2023-01-18T10:13:23.462Z,94.04
2023-01-18T10:14:23.466Z,94.14
2023-01-18T10:15:23.465Z,94.10
2023-01-18T10:16:23.496Z,93.89
2023-01-18T10:17:23.422Z,93.27
2023-01-18T10:18:23.425Z,93.31
2023-01-18T10:19:23.403Z,93.52
2023-01-18T10:20:23.462Z,93.68
2023-01-18T10:21:23.382Z,93.68
2023-01-18T10:22:23.388Z,93.79
2023-01-18T10:23:23.380Z,93.99
2023-01-18T10:24:23.387Z,94.10
2023-01-18T10:25:23.346Z,93.79
2023-01-18T10:26:23.352Z,93.89
2023-01-18T10:27:23.323Z,93.79
2023-01-18T10:28:23.320Z,93.74
2023-01-18T10:29:23.303Z,93.74
2023-01-18T10:30:23.383Z,93.12
2023-01-18T10:31:23.364Z,92.80
2023-01-18T10:32:23.280Z,92.91
2023-01-18T10:33:23.271Z,92.91
2023-01-18T10:34:23.262Z,93.01
2023-01-18T10:35:23.245Z,93.33
2023-01-18T10:36:23.232Z,93.23
2023-01-18T10:37:23.214Z,92.80
2023-01-18T10:38:23.246Z,92.80
2023-01-18T10:39:23.194Z,92.91
2023-01-18T10:40:23.221Z,92.80
2023-01-18T10:41:23.204Z,93.12
2023-01-18T10:42:23.183Z,93.33
2023-01-18T10:43:23.156Z,93.54
2023-01-18T10:44:23.152Z,93.74
2023-01-18T10:45:23.261Z,93.85
2023-01-18T10:46:23.161Z,94.16
2023-01-18T10:47:23.123Z,93.43
2023-01-18T10:48:23.124Z,93.23
2023-01-18T10:49:23.094Z,93.54
2023-01-18T10:50:23.104Z,93.95
2023-01-18T10:51:23.074Z,94.16
2023-01-18T10:52:23.077Z,94.26
2023-01-18T10:53:23.056Z,93.95
2023-01-18T10:54:23.057Z,93.85
2023-01-18T10:55:23.034Z,93.85
2023-01-18T10:56:23.054Z,93.23
2023-01-18T10:57:23.025Z,92.80
2023-01-18T10:58:23.004Z,93.23
2023-01-18T10:59:22.993Z,93.33
2023-01-18T11:00:23.047Z,92.60
2023-01-18T11:01:23.054Z,92.39
2023-01-18T11:02:22.987Z,92.08
2023-01-18T11:03:22.964Z,92.39
2023-01-18T11:04:22.976Z,93.07
2023-01-18T11:05:22.940Z,92.70
2023-01-18T11:06:22.923Z,92.45
2023-01-18T11:07:22.925Z,92.03
2023-01-18T11:08:22.896Z,91.93
2023-01-18T11:09:22.901Z,91.41
2023-01-18T11:10:22.895Z,91.66
2023-01-18T11:11:22.874Z,91.77
2023-01-18T11:12:22.854Z,91.77
2023-01-18T11:13:22.846Z,91.97
2023-01-18T11:14:22.835Z,91.25
2023-01-18T11:15:22.835Z,91.56
2023-01-18T11:16:22.884Z,91.46
2023-01-18T11:17:22.813Z,91.66
2023-01-18T11:18:22.796Z,91.77
2023-01-18T11:19:22.838Z,92.39
2023-01-18T11:20:22.774Z,92.70
2023-01-18T11:21:22.806Z,92.70
2023-01-18T11:22:22.759Z,92.70
2023-01-18T11:23:22.760Z,91.97
2023-01-18T11:24:22.746Z,92.49
2023-01-18T11:25:22.747Z,92.29
2023-01-18T11:26:22.731Z,92.29
2023-01-18T11:27:22.715Z,92.49
2023-01-18T11:28:22.707Z,92.49
2023-01-18T11:29:22.686Z,92.14
2023-01-18T11:30:22.665Z,92.03
2023-01-18T11:31:22.762Z,92.14
2023-01-18T11:32:22.673Z,92.35
2023-01-18T11:33:22.659Z,91.83
2023-01-18T11:34:22.656Z,91.72
2023-01-18T11:35:23.581Z,91.72
2023-01-18T11:36:22.623Z,92.03
2023-01-18T11:37:22.595Z,91.62
2023-01-18T11:38:22.607Z,91.62
2023-01-18T11:39:22.586Z,91.00
2023-01-18T11:40:22.572Z,91.20
2023-01-18T11:41:22.556Z,91.52
2023-01-18T11:42:22.592Z,91.62
2023-01-18T11:43:22.569Z,91.72
2023-01-18T11:44:22.527Z,91.72
2023-01-18T11:45:22.738Z,92.03
2023-01-18T11:46:22.525Z,92.35
2023-01-18T11:47:22.497Z,92.35
2023-01-18T11:48:22.496Z,91.72
2023-01-18T11:49:22.480Z,91.00
2023-01-18T11:50:22.799Z,91.20
2023-01-18T11:51:22.469Z,91.31
2023-01-18T11:52:22.447Z,91.83
2023-01-18T11:53:22.448Z,91.62
2023-01-18T11:54:22.425Z,91.41
2023-01-18T11:55:22.418Z,91.31
2023-01-18T11:56:22.403Z,91.41
2023-01-18T11:57:22.401Z,91.25
2023-01-18T11:58:22.378Z,91.62
2023-01-18T11:59:22.370Z,91.66
2023-01-18T12:00:22.359Z,91.87
2023-01-18T12:01:22.375Z,91.56
2023-01-18T12:02:22.403Z,91.25
2023-01-18T12:03:22.366Z,91.04
2023-01-18T12:04:22.348Z,91.04
2023-01-18T12:05:22.307Z,90.93
2023-01-18T12:06:22.295Z,91.04
2023-01-18T12:07:22.287Z,91.35
2023-01-18T12:08:22.285Z,91.46
2023-01-18T12:09:22.266Z,91.46
2023-01-18T12:10:22.258Z,91.14
2023-01-18T12:11:22.247Z,91.46
2023-01-18T12:12:22.253Z,91.25
2023-01-18T12:13:22.218Z,91.56
2023-01-18T12:14:22.217Z,91.25
2023-01-18T12:15:22.201Z,91.25
2023-01-18T12:16:22.204Z,90.93
2023-01-18T12:17:22.185Z,91.14
2023-01-18T12:18:22.180Z,91.25
2023-01-18T12:19:22.177Z,91.25
2023-01-18T12:20:22.167Z,90.62
2023-01-18T12:21:22.145Z,90.41
2023-01-18T12:22:22.128Z,90.41
2023-01-18T12:23:22.143Z,90.10
2023-01-18T12:24:22.128Z,90.41
2023-01-18T12:25:22.116Z,90.10
2023-01-18T12:26:22.118Z,89.52
2023-01-18T12:27:22.082Z,89.52
2023-01-18T12:28:22.068Z,89.94
2023-01-18T12:29:22.069Z,90.04
2023-01-18T12:30:22.052Z,89.41
2023-01-18T12:31:22.049Z,89.83
2023-01-18T12:32:22.035Z,89.20
2023-01-18T12:33:34.384Z,89.10
2023-01-18T12:34:23.028Z,89.06
2023-01-18T12:35:24.977Z,89.06
2023-01-18T12:36:21.983Z,89.27
2023-01-18T12:37:21.972Z,89.37
2023-01-18T12:38:21.960Z,89.79
2023-01-18T12:39:21.997Z,89.37
2023-01-18T12:40:21.935Z,89.79
2023-01-18T12:41:21.944Z,89.37
2023-01-18T12:42:21.911Z,89.06
2023-01-18T12:43:21.919Z,89.06
2023-01-18T12:44:21.919Z,88.75
2023-01-18T12:45:21.889Z,88.64
2023-01-18T12:46:21.924Z,88.64
2023-01-18T12:47:21.867Z,88.64
2023-01-18T12:48:21.849Z,88.54
2023-01-18T12:49:21.893Z,88.54
2023-01-18T12:50:23.167Z,88.92
2023-01-18T12:51:21.836Z,88.71
2023-01-18T12:52:21.824Z,88.19